Hg 306 Tobis — OUPS — position and weather

sailwx.info

Track history (hours):
 
Tides and Currents Weather Stations Pressure Air Temp Water Temp Dewpoint Dewpoint Depression Visibility Wind Speed Wind Dir Waves Ship Positions

Hg 306 Tobis

Last reported at 2016-Jun-23 10:32 UTC. Time now 2016-Jun-26 04:46 UTC.
Position N 59°01' E 004°36'.

Length 40 m; draft 6.4 m.

Type: Fishing. MMSI: 219013001.

Date/timePositionNaut miles runAvg speedWind from/ knotsBaromVisibWave heightAir tempDewpointWater temp
2016-Jun-23 10:32N 59°01' E 004°36'1010.3
2016-Jun-23 09:33N 58°53' E 004°49'9 8.7
2016-Jun-23 08:34N 58°47' E 005°00'1010.1
2016-Jun-23 07:34N 58°39' E 005°13'2110.2
2016-Jun-23 05:31N 58°23' E 005°39'1310.6
2016-Jun-23 04:16N 58°14' E 005°56'7 9.5
2016-Jun-23 03:33N 58°09' E 006°05'10 9.8
2016-Jun-23 02:33N 58°02' E 006°20'10 9.7
2016-Jun-23 01:33N 57°56' E 006°33'36 1.5
2016-Jun-22 01:32N 57°51' E 005°26'  
2016-Jun-17 16:08N 59°22' E 002°02'2 3.0
2016-Jun-17 15:23N 59°22' E 002°07'8 1.4
2016-Jun-17 09:33N 59°22' E 002°23'11 0.5
2016-Jun-16 10:33N 59°16' E 002°05'3 3.0
2016-Jun-16 09:33N 59°17' E 002°10'3 3.0
2016-Jun-16 08:33N 59°19' E 002°16'3 3.1
2016-Jun-16 07:33N 59°21' E 002°21'3 3.1
2016-Jun-16 06:33N 59°22' E 002°26'3 3.1
2016-Jun-16 05:33N 59°24' E 002°30'3 3.1
2016-Jun-16 04:32N 59°27' E 002°33'0 0.3
2016-Jun-16 03:33N 59°27' E 002°33'4 3.6
2016-Jun-16 02:33N 59°30' E 002°37'3 3.0
2016-Jun-16 01:33N 59°33' E 002°38'1 1.0
2016-Jun-16 00:33N 59°34' E 002°38'2 2.1
2016-Jun-15 23:33N 59°32' E 002°38'3 3.1
2016-Jun-15 22:33N 59°29' E 002°37'3 3.0
2016-Jun-15 21:33N 59°26' E 002°35'4 4.1
2016-Jun-15 20:33N 59°22' E 002°37'1010.3
2016-Jun-15 19:33N 59°17' E 002°54'3410.3
2016-Jun-15 16:16N 58°58' E 003°49'810.3
2016-Jun-15 15:32N 58°53' E 004°01'1010.5
2016-Jun-15 14:33N 58°47' E 004°17'1110.8
2016-Jun-15 13:33N 58°41' E 004°34'6 6.4
2016-Jun-15 12:33N 58°37' E 004°44'8 7.6
2016-Jun-15 11:33N 58°33' E 004°56'10 9.9
2016-Jun-15 10:33N 58°28' E 005°12'13 9.6
2016-Jun-15 09:12N 58°20' E 005°32'6 9.9
2016-Jun-15 08:33N 58°17' E 005°42'1210.8
2016-Jun-15 07:27N 58°10' E 006°01'1011.4
2016-Jun-15 06:33N 58°04' E 006°17'1211.8
2016-Jun-15 05:33N 57°57' E 006°35'1212.1
2016-Jun-15 04:33N 57°52' E 006°55'  
Track history (hours):
 
Tides and Currents Weather Stations Pressure Air Temp Water Temp Dewpoint Dewpoint Depression Visibility Wind Speed Wind Dir Waves Ship Positions

Hg 306 Tobis

Last reported at 2016-Jun-23 10:32 UTC. Time now 2016-Jun-26 04:46 UTC.
Position N 59°01' E 004°36'.

Length 40 m; draft 6.4 m.

Type: Fishing. MMSI: 219013001.

Date/timePositionNaut miles runAvg speedWind from/ knotsBaromVisibWave heightAir tempDewpointWater temp
2016-Jun-23 10:32N 59°01' E 004°36'1010.3
2016-Jun-23 09:33N 58°53' E 004°49'9 8.7
2016-Jun-23 08:34N 58°47' E 005°00'1010.1
2016-Jun-23 07:34N 58°39' E 005°13'2110.2
2016-Jun-23 05:31N 58°23' E 005°39'1310.6
2016-Jun-23 04:16N 58°14' E 005°56'7 9.5
2016-Jun-23 03:33N 58°09' E 006°05'10 9.8
2016-Jun-23 02:33N 58°02' E 006°20'10 9.7
2016-Jun-23 01:33N 57°56' E 006°33'36 1.5
2016-Jun-22 01:32N 57°51' E 005°26'  
2016-Jun-17 16:08N 59°22' E 002°02'2 3.0
2016-Jun-17 15:23N 59°22' E 002°07'8 1.4
2016-Jun-17 09:33N 59°22' E 002°23'11 0.5
2016-Jun-16 10:33N 59°16' E 002°05'3 3.0
2016-Jun-16 09:33N 59°17' E 002°10'3 3.0
2016-Jun-16 08:33N 59°19' E 002°16'3 3.1
2016-Jun-16 07:33N 59°21' E 002°21'3 3.1
2016-Jun-16 06:33N 59°22' E 002°26'3 3.1
2016-Jun-16 05:33N 59°24' E 002°30'3 3.1
2016-Jun-16 04:32N 59°27' E 002°33'0 0.3
2016-Jun-16 03:33N 59°27' E 002°33'4 3.6
2016-Jun-16 02:33N 59°30' E 002°37'3 3.0
2016-Jun-16 01:33N 59°33' E 002°38'1 1.0
2016-Jun-16 00:33N 59°34' E 002°38'2 2.1
2016-Jun-15 23:33N 59°32' E 002°38'3 3.1
2016-Jun-15 22:33N 59°29' E 002°37'3 3.0
2016-Jun-15 21:33N 59°26' E 002°35'4 4.1
2016-Jun-15 20:33N 59°22' E 002°37'1010.3
2016-Jun-15 19:33N 59°17' E 002°54'3410.3
2016-Jun-15 16:16N 58°58' E 003°49'810.3
2016-Jun-15 15:32N 58°53' E 004°01'1010.5
2016-Jun-15 14:33N 58°47' E 004°17'1110.8
2016-Jun-15 13:33N 58°41' E 004°34'6 6.4
2016-Jun-15 12:33N 58°37' E 004°44'8 7.6
2016-Jun-15 11:33N 58°33' E 004°56'10 9.9
2016-Jun-15 10:33N 58°28' E 005°12'13 9.6
2016-Jun-15 09:12N 58°20' E 005°32'6 9.9
2016-Jun-15 08:33N 58°17' E 005°42'1210.8
2016-Jun-15 07:27N 58°10' E 006°01'1011.4
2016-Jun-15 06:33N 58°04' E 006°17'1211.8
2016-Jun-15 05:33N 57°57' E 006°35'1212.1
2016-Jun-15 04:33N 57°52' E 006°55'  

Dump ship's entire track history